Red Rock, Minnesota
Current Conditions -  °F | °C
As of 1:35 PM on Thursday 27 Nov 2014 (Local Time) from KAUM Reporting Station
Clear Clear  
Wind Chill: -6°   Ceiling: Unl
Heat Index:   Visibility: 10mi
Dew Point: -6°   Wind: 5mph
Humidity: 66%   Direction: 340°NNW
Pressure: 30.43"   Gusts: NA
Location:  43.7188°N, 92.868°W
Report Text: KAUM 271935Z AUTO 34004KT 10SM CLR M16/M21 A3043 RMK AO2
Loading
Personal Weather Stations






























Interactive Weather Map New forecast layout! Learn more

10-Day Weather Forecast

Advertisements
Track Severe Weather on mobile